Time;durP1;ratioP1;P1;durP2;ratioP2;P2;SDS_P1;SDS_P2;PMS_P1;PMS_P2;Temp;Humidity;BMP_temperature;BMP_pressure;BME280_temperature;BME280_humidity;BME280_pressure;Samples;Min_cycle;Max_cycle;Signal;HPM_P1;HPM_P2
2022/07/24 00:00:42;;;;;;;5.63;5.13;;;15.70;99.90;;;;;;4837772;29;20128;-66
2022/07/24 00:03:07;;;;;;;5.22;4.78;;;15.70;99.90;;;;;;4837872;29;20041;-66
2022/07/24 00:05:33;;;;;;;5.30;4.53;;;15.70;99.90;;;;;;4837373;29;20060;-66
2022/07/24 00:07:59;;;;;;;5.07;4.28;;;15.70;99.90;;;;;;4841044;29;20163;-67
2022/07/24 00:10:24;;;;;;;5.63;4.68;;;15.60;99.90;;;;;;4839922;29;20089;-66
2022/07/24 00:12:50;;;;;;;7.32;5.13;;;15.60;99.90;;;;;;4835667;29;20058;-66
2022/07/24 00:15:16;;;;;;;5.72;5.22;;;15.60;99.90;;;;;;4840898;29;20065;-66
2022/07/24 00:17:41;;;;;;;9.98;4.70;;;15.50;99.90;;;;;;4839919;29;20114;-65
2022/07/24 00:20:08;;;;;;;7.10;5.65;;;15.60;99.90;;;;;;4841278;29;20138;-66
2022/07/24 00:22:33;;;;;;;5.47;4.90;;;15.60;99.90;;;;;;4840948;29;20398;-66
2022/07/24 00:24:59;;;;;;;6.57;5.70;;;15.50;99.90;;;;;;4841273;29;20050;-66
2022/07/24 00:27:24;;;;;;;6.90;5.57;;;15.50;99.90;;;;;;4841996;29;20062;-65
2022/07/24 00:29:50;;;;;;;6.00;5.40;;;15.50;99.90;;;;;;4839968;29;20105;-66
2022/07/24 00:32:16;;;;;;;6.03;5.43;;;15.50;99.90;;;;;;4838011;29;20052;-66
2022/07/24 00:34:42;;;;;;;5.85;5.32;;;15.50;99.90;;;;;;4840289;29;20449;-67
2022/07/24 00:37:07;;;;;;;7.25;5.97;;;15.50;99.90;;;;;;4838029;29;20064;-67
2022/07/24 00:39:33;;;;;;;8.07;6.05;;;15.50;99.90;;;;;;4837505;29;20165;-67
2022/07/24 00:41:59;;;;;;;6.00;5.40;;;15.50;99.90;;;;;;4837916;29;20057;-66
2022/07/24 00:44:24;;;;;;;6.65;6.05;;;15.40;99.90;;;;;;4839825;29;20061;-67
2022/07/24 00:46:50;;;;;;;6.15;5.55;;;15.50;99.90;;;;;;4840300;29;20133;-66
2022/07/24 00:49:18;;;;;;;6.20;5.60;;;15.50;99.90;;;;;;4841183;29;20407;-66
2022/07/24 00:51:46;;;;;;;6.63;6.03;;;15.50;99.90;;;;;;4837866;29;20046;-66
2022/07/24 00:54:14;;;;;;;6.05;5.45;;;15.50;99.90;;;;;;4841928;29;20054;-66
2022/07/24 00:56:41;;;;;;;6.93;6.30;;;15.40;99.90;;;;;;4839939;29;20065;-66
2022/07/24 00:59:07;;;;;;;7.13;6.47;;;15.40;99.90;;;;;;4839195;29;20057;-66
2022/07/24 01:01:33;;;;;;;7.20;6.50;;;15.40;99.90;;;;;;4838886;29;20551;-66
2022/07/24 01:03:59;;;;;;;6.20;5.60;;;15.30;99.90;;;;;;4838536;29;20050;-66
2022/07/24 01:06:24;;;;;;;6.78;6.13;;;15.40;99.90;;;;;;4838553;29;20202;-66
2022/07/24 01:08:50;;;;;;;7.32;6.38;;;15.40;99.90;;;;;;4840726;29;20435;-67
2022/07/24 01:11:17;;;;;;;7.55;6.68;;;15.30;99.90;;;;;;4839258;29;20058;-66
2022/07/24 01:13:43;;;;;;;7.32;6.63;;;15.10;99.90;;;;;;4839510;29;20066;-66
2022/07/24 01:16:09;;;;;;;7.65;7.00;;;15.30;99.90;;;;;;4837093;29;20061;-65
2022/07/24 01:18:36;;;;;;;7.32;6.63;;;15.30;99.90;;;;;;4842496;29;20053;-66
2022/07/24 01:21:02;;;;;;;7.30;6.60;;;15.30;99.90;;;;;;4839021;29;20068;-67
2022/07/24 01:23:27;;;;;;;7.28;6.57;;;15.30;99.90;;;;;;4842590;29;20086;-66
2022/07/24 01:25:53;;;;;;;7.28;6.63;;;15.30;99.90;;;;;;4842765;29;20164;-66
2022/07/24 01:28:19;;;;;;;5.93;5.45;;;15.20;99.90;;;;;;4842705;29;20121;-66
2022/07/24 01:30:45;;;;;;;7.20;6.60;;;15.20;99.90;;;;;;4843249;29;20191;-66
2022/07/24 01:33:12;;;;;;;7.18;6.57;;;15.20;99.90;;;;;;4841402;29;20050;-66
2022/07/24 01:35:37;;;;;;;7.00;6.30;;;15.20;99.90;;;;;;4841259;29;20046;-66
2022/07/24 01:38:03;;;;;;;6.93;6.22;;;15.10;99.90;;;;;;4842312;29;20053;-66
2022/07/24 01:40:29;;;;;;;7.22;6.53;;;15.10;99.90;;;;;;4840607;29;20178;-66
2022/07/24 01:42:55;;;;;;;8.55;6.55;;;15.10;99.90;;;;;;4840655;29;20137;-67
2022/07/24 01:45:21;;;;;;;8.10;7.30;;;15.10;99.90;;;;;;4843672;29;20132;-66
2022/07/24 01:47:47;;;;;;;6.93;6.32;;;15.10;99.90;;;;;;4842155;29;20574;-66
2022/07/24 01:50:13;;;;;;;7.03;6.43;;;15.10;99.90;;;;;;4843001;29;20089;-67
2022/07/24 01:52:39;;;;;;;7.63;6.82;;;15.10;99.90;;;;;;4842980;29;20106;-66
2022/07/24 01:55:05;;;;;;;7.78;7.03;;;15.10;99.90;;;;;;4841420;29;20065;-66
2022/07/24 01:57:32;;;;;;;7.43;6.72;;;15.00;99.90;;;;;;4843992;29;20057;-66
2022/07/24 01:59:58;;;;;;;8.77;7.70;;;15.00;99.90;;;;;;4841855;29;20054;-66
2022/07/24 02:02:24;;;;;;;8.70;7.85;;;15.00;99.90;;;;;;4842346;29;20045;-66
2022/07/24 02:04:50;;;;;;;8.02;7.28;;;14.90;99.90;;;;;;4841036;29;20085;-66
2022/07/24 02:07:15;;;;;;;7.75;6.97;;;14.90;99.90;;;;;;4843794;29;20049;-66
2022/07/24 02:09:41;;;;;;;7.85;7.10;;;14.90;99.90;;;;;;4841762;29;20085;-67
2022/07/24 02:12:06;;;;;;;7.85;7.05;;;15.00;99.90;;;;;;4843346;29;20049;-66
2022/07/24 02:14:32;;;;;;;8.27;7.47;;;14.90;99.90;;;;;;4838878;29;21757;-66
2022/07/24 02:16:58;;;;;;;8.35;7.60;;;14.90;99.90;;;;;;4840565;29;20411;-66
2022/07/24 02:19:24;;;;;;;9.07;7.90;;;14.90;99.90;;;;;;4844049;29;20054;-66
2022/07/24 02:21:50;;;;;;;9.00;8.15;;;14.90;99.90;;;;;;4838858;29;20518;-66
2022/07/24 02:24:15;;;;;;;8.45;7.65;;;14.90;99.90;;;;;;4842940;29;20042;-66
2022/07/24 02:26:41;;;;;;;8.20;7.40;;;14.90;99.90;;;;;;4843905;29;20501;-66
2022/07/24 02:29:06;;;;;;;9.05;8.15;;;14.90;99.90;;;;;;4839135;29;20053;-66
2022/07/24 02:31:32;;;;;;;8.90;7.80;;;14.90;99.90;;;;;;4840738;29;20492;-66
2022/07/24 02:33:58;;;;;;;8.43;7.60;;;14.90;99.90;;;;;;4836551;29;20050;-66
2022/07/24 02:36:23;;;;;;;8.05;7.25;;;14.80;99.90;;;;;;4840756;29;20046;-66
2022/07/24 02:38:49;;;;;;;8.90;8.00;;;14.80;99.90;;;;;;4840575;29;20086;-66
2022/07/24 02:41:14;;;;;;;8.13;7.22;;;14.80;99.90;;;;;;4816891;29;20058;-67
2022/07/24 02:43:41;;;;;;;7.60;7.00;;;14.80;99.90;;;;;;4836516;29;20461;-66
2022/07/24 02:46:06;;;;;;;8.02;7.32;;;14.80;99.90;;;;;;4843188;29;20484;-66
2022/07/24 02:48:32;;;;;;;8.90;8.18;;;14.80;99.90;;;;;;4840881;29;20062;-66
2022/07/24 02:50:58;;;;;;;7.85;7.05;;;14.80;99.90;;;;;;4841141;29;20400;-67
2022/07/24 02:53:24;;;;;;;9.23;7.53;;;14.80;99.90;;;;;;4840093;29;20053;-66
2022/07/24 02:55:49;;;;;;;10.18;7.30;;;14.70;99.90;;;;;;4840458;29;20063;-66
2022/07/24 02:58:15;;;;;;;9.23;6.82;;;14.70;99.90;;;;;;4826707;29;20061;-66
2022/07/24 03:00:41;;;;;;;7.65;6.97;;;14.70;99.90;;;;;;4842854;29;20054;-66
2022/07/24 03:03:06;;;;;;;7.07;6.47;;;14.70;99.90;;;;;;4839927;29;20057;-66
2022/07/24 03:05:32;;;;;;;8.25;6.85;;;14.70;99.90;;;;;;4841941;29;20086;-66
2022/07/24 03:07:57;;;;;;;8.02;7.22;;;14.70;99.90;;;;;;4838709;29;20193;-66
2022/07/24 03:10:23;;;;;;;8.73;7.85;;;14.70;99.90;;;;;;4843030;29;20065;-67
2022/07/24 03:12:49;;;;;;;8.90;8.10;;;14.70;99.90;;;;;;4836655;29;20067;-65
2022/07/24 03:15:14;;;;;;;9.23;7.68;;;14.70;99.90;;;;;;4841096;29;20083;-66
2022/07/24 03:17:56;;;;;;;7.60;6.80;;;14.70;99.90;;;;;;4841544;29;20232;-66
2022/07/24 03:20:24;;;;;;;8.93;7.43;;;14.70;99.90;;;;;;4840636;29;20074;-66
2022/07/24 03:22:50;;;;;;;9.20;7.80;;;14.60;99.90;;;;;;4840456;29;20064;-66
2022/07/24 03:25:15;;;;;;;7.90;7.15;;;14.60;99.90;;;;;;4841526;29;20061;-66
2022/07/24 03:27:41;;;;;;;7.72;7.03;;;14.60;99.90;;;;;;4825438;29;20057;-66
2022/07/24 03:34:16;;;;;;;7.70;7.07;;;14.60;99.90;;;;;;4839356;29;20040;-66
2022/07/24 03:40:48;;;;;;;8.68;6.75;;;14.60;99.90;;;;;;4824638;29;20122;-66
2022/07/24 03:43:13;;;;;;;8.68;7.03;;;14.60;99.90;;;;;;4831449;29;20058;-66
2022/07/24 03:45:39;;;;;;;8.10;7.30;;;14.60;99.90;;;;;;4840427;29;20077;-65
2022/07/24 03:48:05;;;;;;;7.82;7.03;;;14.60;99.90;;;;;;4840691;29;20046;-66
2022/07/24 03:50:34;;;;;;;7.38;6.40;;;14.60;99.90;;;;;;4842331;29;20514;-66
2022/07/24 03:53:03;;;;;;;7.20;6.57;;;14.60;99.90;;;;;;4838580;29;20112;-67
2022/07/24 03:55:56;;;;;;;7.78;7.05;;;14.60;99.90;;;;;;4842492;29;20064;-67
2022/07/24 03:58:47;;;;;;;7.10;6.40;;;14.60;99.90;;;;;;4840614;29;20066;-67
2022/07/24 04:01:12;;;;;;;7.20;6.60;;;14.60;99.90;;;;;;4837565;29;20049;-66
2022/07/24 04:03:38;;;;;;;7.32;6.63;;;14.60;99.90;;;;;;4839160;29;20148;-66
2022/07/24 04:10:10;;;;;;;6.93;6.32;;;14.70;99.90;;;;;;4839493;29;20132;-66
2022/07/24 04:12:36;;;;;;;8.82;6.45;;;14.70;99.90;;;;;;4855039;29;20053;-66
2022/07/24 04:18:48;;;;;;;7.50;6.68;;;14.80;99.90;;;;;;4846472;29;20111;-65
2022/07/24 04:21:17;;;;;;;7.35;6.60;;;14.90;99.90;;;;;;4838338;29;20065;-66
2022/07/24 04:23:43;;;;;;;7.95;7.15;;;14.90;99.90;;;;;;4841401;29;20495;-66
2022/07/24 04:26:12;;;;;;;7.45;6.80;;;14.90;99.90;;;;;;4840931;29;20062;-66
2022/07/24 04:28:38;;;;;;;7.75;6.53;;;14.90;99.90;;;;;;4838395;29;20396;-66
2022/07/24 04:31:04;;;;;;;7.10;6.40;;;14.90;99.90;;;;;;4840312;29;20053;-66
2022/07/24 04:33:30;;;;;;;7.03;6.40;;;14.90;99.90;;;;;;4841142;29;20061;-66
2022/07/24 04:35:56;;;;;;;9.88;6.88;;;15.00;99.90;;;;;;4839824;29;20563;-66
2022/07/24 04:38:22;;;;;;;6.97;6.25;;;15.00;99.90;;;;;;4839312;29;20050;-67
2022/07/24 04:40:47;;;;;;;7.38;6.60;;;15.00;99.90;;;;;;4837557;29;20444;-67
2022/07/24 04:43:13;;;;;;;7.10;6.40;;;15.00;99.90;;;;;;4840623;29;20058;-66
2022/07/24 04:45:39;;;;;;;6.95;6.07;;;15.00;99.90;;;;;;4840927;29;20049;-66
2022/07/24 04:48:05;;;;;;;6.80;6.10;;;15.10;99.90;;;;;;4841478;29;21190;-66
2022/07/24 04:50:30;;;;;;;8.35;6.45;;;15.10;99.90;;;;;;4839201;29;20054;-66
2022/07/24 04:52:57;;;;;;;6.43;5.68;;;15.20;99.90;;;;;;4840406;29;20065;-66
2022/07/24 04:55:22;;;;;;;6.80;6.20;;;15.20;99.90;;;;;;4841018;29;20077;-66
2022/07/24 04:57:48;;;;;;;7.25;6.45;;;15.30;99.90;;;;;;4845064;29;20138;-66
2022/07/24 05:00:14;;;;;;;8.35;6.07;;;15.30;99.90;;;;;;4840895;29;20069;-66
2022/07/24 05:02:40;;;;;;;6.97;6.28;;;15.40;99.90;;;;;;4841932;29;20050;-66
2022/07/24 05:05:06;;;;;;;8.45;6.75;;;15.50;99.90;;;;;;4845414;29;20502;-66
2022/07/24 05:07:31;;;;;;;7.00;6.32;;;15.60;99.90;;;;;;4843379;29;20057;-66
2022/07/24 05:09:57;;;;;;;7.28;5.85;;;15.70;99.90;;;;;;4840923;29;20053;-66
2022/07/24 05:12:24;;;;;;;7.25;6.55;;;15.70;99.90;;;;;;4839294;29;20605;-67
2022/07/24 05:14:50;;;;;;;7.10;6.00;;;15.70;99.90;;;;;;4844919;29;20357;-66
2022/07/24 05:17:15;;;;;;;7.05;6.35;;;15.80;99.90;;;;;;4843338;29;20077;-67
2022/07/24 05:19:41;;;;;;;7.43;6.00;;;15.80;99.90;;;;;;4843804;29;20380;-66
2022/07/24 05:22:07;;;;;;;6.25;5.65;;;15.80;99.90;;;;;;4841701;29;20060;-67
2022/07/24 05:24:32;;;;;;;6.97;6.20;;;15.90;99.90;;;;;;4844598;29;20433;-66
2022/07/24 05:26:58;;;;;;;6.45;5.82;;;16.00;99.90;;;;;;4842623;29;20627;-66
2022/07/24 05:29:23;;;;;;;7.10;6.43;;;16.10;99.90;;;;;;4843670;29;20054;-66
2022/07/24 05:31:51;;;;;;;6.38;5.68;;;16.20;99.90;;;;;;4840608;29;20142;-66
2022/07/24 05:34:17;;;;;;;6.93;6.32;;;16.30;99.90;;;;;;4839057;29;20054;-66
2022/07/24 05:39:34;;;;;;;6.45;5.85;;;16.80;99.90;;;;;;4833948;29;20085;-67
2022/07/24 05:42:00;;;;;;;7.03;6.32;;;17.10;99.90;;;;;;4833130;29;20077;-65
2022/07/24 05:44:25;;;;;;;7.10;6.50;;;17.50;99.90;;;;;;4844469;29;20117;-67
2022/07/24 05:46:51;;;;;;;7.55;5.90;;;17.80;99.90;;;;;;4839031;29;20127;-67
2022/07/24 05:49:17;;;;;;;7.82;7.03;;;18.10;99.90;;;;;;4842930;29;20064;-67
2022/07/24 05:51:42;;;;;;;8.30;7.47;;;18.30;99.90;;;;;;4843903;29;20079;-66
2022/07/24 05:54:08;;;;;;;9.25;7.97;;;18.60;99.90;;;;;;4843660;29;20527;-67
2022/07/24 05:56:34;;;;;;;8.15;7.43;;;19.00;99.90;;;;;;4844087;29;20105;-67
2022/07/24 05:58:59;;;;;;;8.35;7.32;;;19.50;99.90;;;;;;4842181;29;20062;-66
2022/07/24 06:01:25;;;;;;;11.32;8.13;;;19.90;99.90;;;;;;4844197;29;20061;-67
2022/07/24 06:03:50;;;;;;;8.85;7.95;;;20.30;99.90;;;;;;4826079;29;20061;-68
2022/07/24 06:06:16;;;;;;;9.15;8.32;;;20.50;99.90;;;;;;4843390;29;20113;-67
2022/07/24 06:08:41;;;;;;;8.23;7.43;;;20.60;99.90;;;;;;4843833;29;20101;-67
2022/07/24 06:11:07;;;;;;;9.18;8.32;;;20.60;99.90;;;;;;4844120;29;20145;-68
2022/07/24 06:13:32;;;;;;;8.73;7.93;;;21.00;99.90;;;;;;4844122;29;20046;-67
2022/07/24 06:15:58;;;;;;;9.25;8.05;;;21.80;99.90;;;;;;4842853;29;20068;-67
2022/07/24 06:18:23;;;;;;;9.20;8.40;;;22.50;99.90;;;;;;4842846;29;20145;-67
2022/07/24 06:20:49;;;;;;;12.43;8.27;;;23.00;99.90;;;;;;4842787;29;20065;-67
2022/07/24 06:23:15;;;;;;;9.80;8.68;;;23.30;99.90;;;;;;4842621;29;20523;-67
2022/07/24 06:25:40;;;;;;;8.50;7.70;;;23.60;99.90;;;;;;4839712;29;20064;-67
2022/07/24 06:28:06;;;;;;;9.43;8.43;;;24.00;99.90;;;;;;4843851;29;20142;-68
2022/07/24 06:30:31;;;;;;;9.30;8.18;;;24.20;99.90;;;;;;4843169;29;20114;-67
2022/07/24 06:32:58;;;;;;;9.88;8.98;;;24.40;99.90;;;;;;4841796;29;20514;-68
2022/07/24 06:35:25;;;;;;;9.75;8.85;;;24.30;99.90;;;;;;4843674;29;20054;-67
2022/07/24 06:37:51;;;;;;;10.48;9.48;;;23.80;99.90;;;;;;4842737;29;20079;-68
2022/07/24 06:40:19;;;;;;;10.60;9.65;;;22.90;99.90;;;;;;4842018;29;20540;-67
2022/07/24 06:42:46;;;;;;;10.93;9.90;;;22.30;99.90;;;;;;4843275;29;20058;-68
2022/07/24 06:45:12;;;;;;;10.75;9.65;;;21.80;99.90;;;;;;4857139;29;20110;-68
2022/07/24 06:47:38;;;;;;;10.55;9.45;;;21.40;99.90;;;;;;4843235;29;20110;-67
2022/07/24 06:50:04;;;;;;;12.52;11.23;;;21.10;99.90;;;;;;4843246;29;20411;-67
2022/07/24 06:52:29;;;;;;;12.48;11.25;;;21.00;99.90;;;;;;4842456;29;20058;-67
2022/07/24 06:54:55;;;;;;;12.27;11.18;;;20.90;99.90;;;;;;4843443;29;20062;-66
2022/07/24 06:57:20;;;;;;;13.13;11.88;;;20.90;99.90;;;;;;4841556;29;20061;-67
2022/07/24 06:59:46;;;;;;;12.75;11.55;;;20.90;99.90;;;;;;4842810;29;20098;-68
2022/07/24 07:02:12;;;;;;;12.38;11.18;;;21.00;99.90;;;;;;4857007;29;20054;-65
2022/07/24 07:04:37;;;;;;;12.40;11.27;;;21.00;99.90;;;;;;4841810;29;20054;-65
2022/07/24 07:07:03;;;;;;;12.32;11.13;;;21.20;99.90;;;;;;4842336;29;20065;-65
2022/07/24 07:09:29;;;;;;;11.57;10.48;;;21.20;99.90;;;;;;4843090;29;20061;-65
2022/07/24 07:11:55;;;;;;;13.23;11.93;;;21.30;99.90;;;;;;4842741;29;20412;-66
2022/07/24 07:14:21;;;;;;;12.45;11.25;;;21.40;99.90;;;;;;4843033;29;20084;-67
2022/07/24 07:16:47;;;;;;;12.80;11.52;;;21.50;99.90;;;;;;4842002;29;20057;-67
2022/07/24 07:19:12;;;;;;;12.32;11.13;;;21.70;99.90;;;;;;4825739;29;20057;-66
2022/07/24 07:21:38;;;;;;;12.95;11.57;;;21.80;99.90;;;;;;4842013;29;20062;-67
2022/07/24 07:24:04;;;;;;;13.48;12.07;;;21.90;99.90;;;;;;4841993;29;20058;-66
2022/07/24 07:26:30;;;;;;;13.38;11.55;;;22.00;99.90;;;;;;4840903;29;20110;-67
2022/07/24 07:28:55;;;;;;;12.93;11.73;;;22.10;99.90;;;;;;4843287;29;20050;-66
2022/07/24 07:31:21;;;;;;;12.13;10.93;;;22.20;99.90;;;;;;4842184;29;20423;-67
2022/07/24 07:33:47;;;;;;;12.98;11.70;;;22.20;99.90;;;;;;4842221;29;20058;-63
2022/07/24 07:36:13;;;;;;;12.25;11.05;;;22.30;99.90;;;;;;4841064;29;20057;-67
2022/07/24 07:38:39;;;;;;;12.98;11.68;;;22.40;99.90;;;;;;4838605;29;20133;-65
2022/07/24 07:41:05;;;;;;;11.88;10.77;;;22.50;99.90;;;;;;4840588;29;20114;-64
2022/07/24 07:43:31;;;;;;;13.82;11.30;;;22.60;99.90;;;;;;4842480;29;20277;-64
2022/07/24 07:45:57;;;;;;;11.93;10.73;;;22.80;99.90;;;;;;4839882;29;20591;-66
2022/07/24 07:48:22;;;;;;;12.52;10.88;;;22.90;99.90;;;;;;4841822;29;20102;-66
2022/07/24 07:50:48;;;;;;;14.13;11.52;;;22.90;99.90;;;;;;4841838;29;20058;-67
2022/07/24 07:53:13;;;;;;;15.73;11.75;;;23.20;99.90;;;;;;4842455;29;20113;-67
2022/07/24 07:55:40;;;;;;;12.65;11.38;;;23.30;99.90;;;;;;4842222;29;20058;-67
2022/07/24 07:58:05;;;;;;;14.07;11.40;;;23.50;99.90;;;;;;4842116;29;20519;-67
2022/07/24 08:00:32;;;;;;;12.85;10.88;;;23.70;99.90;;;;;;4840515;29;20054;-67
2022/07/24 08:02:58;;;;;;;9.95;9.02;;;23.70;99.90;;;;;;4840640;29;20153;-67
2022/07/24 08:05:24;;;;;;;10.05;8.32;;;23.80;99.90;;;;;;4842198;29;20161;-66
2022/07/24 08:07:49;;;;;;;8.40;7.53;;;23.90;99.90;;;;;;4840168;29;20511;-66
2022/07/24 08:10:15;;;;;;;7.50;6.80;;;23.90;99.90;;;;;;4842073;29;20085;-67
2022/07/24 08:12:40;;;;;;;10.07;6.88;;;24.00;99.90;;;;;;4841534;29;20072;-66
2022/07/24 08:15:07;;;;;;;5.93;5.25;;;23.90;99.90;;;;;;4840511;29;20061;-67
2022/07/24 08:17:32;;;;;;;7.57;5.75;;;24.10;99.90;;;;;;4842008;29;20060;-67
2022/07/24 08:19:58;;;;;;;6.28;5.70;;;24.00;99.90;;;;;;4841825;29;20053;-66
2022/07/24 08:22:28;;;;;;;5.60;5.10;;;24.10;99.90;;;;;;4840116;29;20086;-66
2022/07/24 08:24:54;;;;;;;5.60;5.05;;;24.20;99.90;;;;;;4842221;29;20157;-67
2022/07/24 08:27:19;;;;;;;5.28;4.78;;;24.30;99.90;;;;;;4841078;29;20505;-67
2022/07/24 08:29:45;;;;;;;5.43;4.93;;;24.40;99.90;;;;;;4840387;29;20349;-67
2022/07/24 08:32:10;;;;;;;5.13;4.25;;;24.50;99.90;;;;;;4843392;29;20054;-67
2022/07/24 08:34:36;;;;;;;4.90;3.90;;;24.60;99.90;;;;;;4844943;29;20134;-67
2022/07/24 08:37:02;;;;;;;4.90;4.03;;;24.60;99.90;;;;;;4844127;29;20133;-67
2022/07/24 08:39:27;;;;;;;4.90;3.90;;;24.70;99.90;;;;;;4845792;29;20062;-67
2022/07/24 08:41:53;;;;;;;4.60;4.05;;;24.70;99.90;;;;;;4844434;29;20053;-67
2022/07/24 08:44:19;;;;;;;4.15;3.85;;;24.70;99.90;;;;;;4845584;29;20050;-66
2022/07/24 08:46:44;;;;;;;4.10;3.75;;;24.90;99.90;;;;;;4845748;29;20081;-67
2022/07/24 08:49:12;;;;;;;4.40;4.00;;;24.90;99.90;;;;;;4845571;29;20073;-67
2022/07/24 08:51:40;;;;;;;3.85;3.47;;;25.10;99.90;;;;;;4831583;29;20064;-67
2022/07/24 08:54:06;;;;;;;4.10;3.80;;;25.20;99.90;;;;;;4844234;29;20102;-67
2022/07/24 08:56:33;;;;;;;4.72;3.90;;;25.20;99.90;;;;;;4845259;29;20118;-67
2022/07/24 08:59:00;;;;;;;4.40;3.85;;;25.20;99.90;;;;;;4845395;29;20062;-66
2022/07/24 09:01:26;;;;;;;3.95;3.63;;;25.30;99.90;;;;;;4844878;29;20045;-67
2022/07/24 09:03:52;;;;;;;3.80;3.50;;;25.20;99.90;;;;;;4845226;29;20510;-67
2022/07/24 09:06:18;;;;;;;3.40;3.10;;;25.50;99.90;;;;;;4843917;29;20150;-67
2022/07/24 09:08:58;;;;;;;3.10;2.78;;;25.70;99.90;;;;;;4844807;29;20058;-67
2022/07/24 09:11:24;;;;;;;6.97;2.90;;;25.90;99.40;;;;;;4843582;29;20054;-67
2022/07/24 09:16:36;;;;;;;2.80;2.30;;;26.10;95.90;;;;;;4844595;29;20050;-67
2022/07/24 09:19:05;;;;;;;2.30;2.10;;;26.00;95.20;;;;;;4845368;29;20137;-67
2022/07/24 09:21:33;;;;;;;4.65;2.28;;;25.90;95.30;;;;;;4844654;29;20057;-67
2022/07/24 09:24:02;;;;;;;2.65;2.45;;;25.90;95.70;;;;;;4845443;29;20061;-67
2022/07/24 09:26:52;;;;;;;2.28;2.08;;;25.80;96.30;;;;;;4844508;29;20054;-67
2022/07/24 09:29:19;;;;;;;2.30;2.10;;;25.80;90.80;;;;;;4836634;29;20062;-67
2022/07/24 09:31:56;;;;;;;2.58;2.38;;;25.90;91.10;;;;;;4844476;29;20057;-67
2022/07/24 09:34:27;;;;;;;2.60;2.40;;;26.00;94.00;;;;;;4844862;29;20065;-67
2022/07/24 09:37:17;;;;;;;2.60;2.40;;;26.10;92.80;;;;;;4842316;29;20050;-66
2022/07/24 09:39:43;;;;;;;3.72;2.40;;;26.20;86.00;;;;;;4844614;29;20097;-67
2022/07/24 09:42:17;;;;;;;2.60;2.40;;;26.30;95.30;;;;;;4843299;29;20046;-66
2022/07/24 09:44:43;;;;;;;5.10;2.40;;;26.40;91.70;;;;;;4845133;29;20106;-67
2022/07/24 09:47:10;;;;;;;2.40;2.20;;;26.40;91.80;;;;;;4844362;29;20483;-67
2022/07/24 09:49:50;;;;;;;2.42;2.20;;;26.40;92.20;;;;;;4843916;29;20512;-67
2022/07/24 09:52:18;;;;;;;2.42;2.22;;;26.50;86.80;;;;;;4843651;29;20053;-67
2022/07/24 09:55:19;;;;;;;2.83;2.30;;;26.40;81.60;;;;;;4843829;29;20106;-67
2022/07/24 09:57:45;;;;;;;2.33;2.13;;;26.40;75.90;;;;;;4842534;29;20064;-67
2022/07/24 10:00:11;;;;;;;2.28;2.08;;;26.40;87.20;;;;;;4842119;29;20144;-67
2022/07/24 10:02:37;;;;;;;4.18;2.28;;;26.40;84.30;;;;;;4844036;29;20407;-67
2022/07/24 10:05:04;;;;;;;2.08;1.90;;;26.40;83.50;;;;;;4844287;29;20136;-67
2022/07/24 10:07:30;;;;;;;2.10;1.90;;;26.40;84.80;;;;;;4844021;29;20078;-67
2022/07/24 10:09:58;;;;;;;5.93;2.15;;;26.40;90.00;;;;;;4842918;29;20061;-67
2022/07/24 10:12:26;;;;;;;2.25;2.05;;;26.50;87.70;;;;;;4843367;29;20099;-68
2022/07/24 10:14:54;;;;;;;1.92;1.83;;;26.60;91.00;;;;;;4843985;29;20089;-67
2022/07/24 10:17:22;;;;;;;2.83;2.08;;;26.80;91.70;;;;;;4843290;29;20141;-67
2022/07/24 10:19:49;;;;;;;4.05;2.20;;;26.90;83.60;;;;;;4843835;29;20061;-67
2022/07/24 10:22:20;;;;;;;2.42;2.20;;;27.00;79.40;;;;;;4842956;29;20507;-67
2022/07/24 10:24:52;;;;;;;2.20;2.00;;;26.90;72.90;;;;;;4844393;29;20394;-67
2022/07/24 10:27:26;;;;;;;3.05;2.40;;;26.80;72.50;;;;;;4843377;29;20054;-67
2022/07/24 10:29:54;;;;;;;3.92;2.10;;;26.80;72.90;;;;;;4842247;29;20066;-67
2022/07/24 10:32:20;;;;;;;2.50;2.30;;;26.80;73.00;;;;;;4843298;29;20137;-67
2022/07/24 10:34:50;;;;;;;2.65;2.45;;;26.80;72.00;;;;;;4843777;29;20061;-67
2022/07/24 10:37:21;;;;;;;2.50;2.30;;;26.70;71.80;;;;;;4841594;29;20094;-67
2022/07/24 10:39:53;;;;;;;;;;;26.60;72.60;;;;;;4843838;29;20061;-67
2022/07/24 10:42:18;;;;;;;2.92;2.35;;;26.60;68.70;;;;;;4842180;29;19988;-67
2022/07/24 10:44:44;;;;;;;2.47;2.28;;;26.70;72.40;;;;;;4843506;29;20046;-67
2022/07/24 10:47:13;;;;;;;2.35;2.15;;;26.70;71.70;;;;;;4841554;29;20488;-67
2022/07/24 10:49:42;;;;;;;3.17;2.25;;;26.80;72.00;;;;;;4841828;29;20054;-67
2022/07/24 10:52:26;;;;;;;2.63;2.42;;;26.90;73.90;;;;;;4843029;29;20053;-67
2022/07/24 10:55:26;;;;;;;2.35;2.15;;;27.00;69.30;;;;;;4843203;29;20060;-67
2022/07/24 10:58:11;;;;;;;2.50;2.30;;;26.90;67.90;;;;;;4841910;29;20066;-67
2022/07/24 11:00:45;;;;;;;2.63;2.42;;;26.80;67.90;;;;;;4843500;29;20054;-67
2022/07/24 11:03:23;;;;;;;3.47;2.60;;;26.80;70.60;;;;;;4841894;29;20066;-67
2022/07/24 11:06:11;;;;;;;2.40;2.20;;;27.10;70.70;;;;;;4841152;29;20117;-67
2022/07/24 11:08:39;;;;;;;3.22;2.40;;;27.40;70.80;;;;;;4842361;29;20102;-67
2022/07/24 11:11:13;;;;;;;2.40;2.17;;;27.30;67.70;;;;;;4841861;29;20062;-67
2022/07/24 11:13:42;;;;;;;3.15;2.40;;;27.30;67.60;;;;;;4843299;29;20056;-66
2022/07/24 11:16:12;;;;;;;2.35;2.15;;;27.30;68.70;;;;;;4842732;29;20061;-65
2022/07/24 11:18:39;;;;;;;2.50;2.30;;;27.40;67.40;;;;;;4841495;29;20427;-66
2022/07/24 11:21:05;;;;;;;2.63;2.35;;;27.50;68.00;;;;;;4840064;29;20089;-66
2022/07/24 11:23:31;;;;;;;2.95;2.28;;;27.50;69.30;;;;;;4842409;29;20138;-66
2022/07/24 11:26:31;;;;;;;3.72;2.22;;;27.50;69.40;;;;;;4841540;29;20100;-67
2022/07/24 11:29:23;;;;;;;2.40;2.20;;;27.60;68.00;;;;;;4842665;29;20050;-66
2022/07/24 11:31:53;;;;;;;3.35;2.50;;;27.50;63.20;;;;;;4842249;29;20517;-67
2022/07/24 11:34:19;;;;;;;2.38;2.10;;;27.40;67.60;;;;;;4838757;29;20049;-66
2022/07/24 11:36:47;;;;;;;2.40;2.20;;;27.40;66.30;;;;;;4835431;29;20058;-65
2022/07/24 11:39:14;;;;;;;3.97;2.10;;;27.30;64.40;;;;;;4841191;29;20057;-66
2022/07/24 11:41:55;;;;;;;2.00;1.83;;;27.20;64.30;;;;;;4842107;29;20488;-66
2022/07/24 11:44:31;;;;;;;2.40;2.20;;;27.20;63.40;;;;;;4842660;29;20058;-67
2022/07/24 11:46:59;;;;;;;2.20;2.00;;;27.30;63.40;;;;;;4841361;29;20062;-67
2022/07/24 11:49:26;;;;;;;2.40;2.20;;;27.30;63.40;;;;;;4841346;29;20141;-67
2022/07/24 11:51:54;;;;;;;2.60;2.40;;;27.50;64.80;;;;;;4841468;29;20054;-67
2022/07/24 11:54:22;;;;;;;3.72;2.35;;;27.70;65.30;;;;;;4840731;29;20420;-67
2022/07/24 11:56:48;;;;;;;5.57;2.30;;;27.70;64.60;;;;;;4841985;29;20045;-67
2022/07/24 11:59:23;;;;;;;2.42;2.22;;;27.80;65.70;;;;;;4839400;29;20515;-66
2022/07/24 12:01:48;;;;;;;2.72;2.30;;;27.80;65.60;;;;;;4840545;29;20058;-65
2022/07/24 12:04:20;;;;;;;3.83;2.50;;;27.80;64.10;;;;;;4842353;29;20058;-66
2022/07/24 12:06:47;;;;;;;3.28;2.47;;;27.90;63.80;;;;;;4839905;29;20050;-66
2022/07/24 12:09:12;;;;;;;3.55;2.45;;;27.80;63.30;;;;;;4841780;29;20054;-65
2022/07/24 12:11:38;;;;;;;2.60;2.20;;;27.80;62.80;;;;;;4842482;29;20412;-67
2022/07/24 12:14:18;;;;;;;2.55;2.05;;;27.90;64.20;;;;;;4841331;29;20395;-67
2022/07/24 12:16:51;;;;;;;2.88;2.40;;;28.00;61.10;;;;;;4841719;29;20050;-67
2022/07/24 12:19:19;;;;;;;3.78;2.30;;;28.00;62.80;;;;;;4837268;29;20050;-67
2022/07/24 12:21:47;;;;;;;2.40;2.20;;;28.00;62.10;;;;;;4836759;29;20065;-66
2022/07/24 12:24:12;;;;;;;2.83;2.50;;;28.10;61.90;;;;;;4841246;29;20587;-67
2022/07/24 12:26:55;;;;;;;2.90;2.40;;;28.10;62.50;;;;;;4841771;29;20086;-66
2022/07/24 12:29:23;;;;;;;3.70;2.30;;;28.20;62.40;;;;;;4840404;29;20050;-66
2022/07/24 12:31:52;;;;;;;2.75;2.53;;;28.20;62.00;;;;;;4840967;29;20049;-66
2022/07/24 12:34:17;;;;;;;2.78;2.58;;;28.20;61.10;;;;;;4841317;29;20128;-67
2022/07/24 12:36:44;;;;;;;4.18;2.70;;;28.00;60.60;;;;;;4839315;29;20083;-66
2022/07/24 12:39:11;;;;;;;2.65;2.45;;;27.90;60.40;;;;;;4839433;29;20383;-66
2022/07/24 12:41:48;;;;;;;2.33;2.13;;;28.00;61.50;;;;;;4841045;29;20500;-66
2022/07/24 12:44:14;;;;;;;2.30;2.10;;;28.00;58.50;;;;;;4826287;29;20057;-66
2022/07/24 12:46:44;;;;;;;3.17;2.22;;;28.10;59.10;;;;;;4841809;29;20050;-66
2022/07/24 12:49:15;;;;;;;2.88;2.30;;;28.00;58.00;;;;;;4840090;29;20480;-66
2022/07/24 12:51:54;;;;;;;4.25;2.20;;;28.10;59.00;;;;;;4840586;29;20396;-66
2022/07/24 12:54:24;;;;;;;2.28;2.08;;;28.20;59.70;;;;;;4841648;29;20418;-66
2022/07/24 12:56:53;;;;;;;2.20;2.00;;;28.30;60.00;;;;;;4841793;29;20065;-66
2022/07/24 12:59:31;;;;;;;2.72;2.53;;;28.40;59.20;;;;;;4842130;29;20172;-67
2022/07/24 13:02:03;;;;;;;2.40;2.20;;;28.20;58.60;;;;;;4852352;29;20068;-66
2022/07/24 13:04:29;;;;;;;2.70;2.45;;;28.20;58.70;;;;;;4823880;29;20496;-66
2022/07/24 13:06:57;;;;;;;2.78;2.42;;;28.10;59.10;;;;;;4822794;29;20066;-66
2022/07/24 13:09:23;;;;;;;3.35;2.47;;;28.10;58.80;;;;;;4823723;29;20098;-66